sensor_id;sensor_type;location;lat;lon;timestamp;temperature;humidity
782;DHT22;374;52.568;13.402;2023-04-24T00:02:24;12.90;99.90
782;DHT22;374;52.568;13.402;2023-04-24T00:04:49;13.10;99.90
782;DHT22;374;52.568;13.402;2023-04-24T00:07:15;13.00;99.90
782;DHT22;374;52.568;13.402;2023-04-24T00:09:45;12.90;99.90
782;DHT22;374;52.568;13.402;2023-04-24T00:12:10;13.10;99.90
782;DHT22;374;52.568;13.402;2023-04-24T00:14:36;13.10;99.90
782;DHT22;374;52.568;13.402;2023-04-24T00:17:01;13.00;99.90
782;DHT22;374;52.568;13.402;2023-04-24T00:19:30;13.00;99.90
782;DHT22;374;52.568;13.402;2023-04-24T00:21:55;13.00;99.90
782;DHT22;374;52.568;13.402;2023-04-24T00:26:47;13.10;99.90
782;DHT22;374;52.568;13.402;2023-04-24T00:29:12;13.00;99.90
782;DHT22;374;52.568;13.402;2023-04-24T00:31:38;13.90;99.90
782;DHT22;374;52.568;13.402;2023-04-24T00:34:04;12.70;99.90
782;DHT22;374;52.568;13.402;2023-04-24T00:38:57;12.90;99.90
782;DHT22;374;52.568;13.402;2023-04-24T00:41:24;13.00;99.90
782;DHT22;374;52.568;13.402;2023-04-24T00:43:51;12.90;99.90
782;DHT22;374;52.568;13.402;2023-04-24T00:46:17;12.80;99.90
782;DHT22;374;52.568;13.402;2023-04-24T00:48:43;12.90;99.90
782;DHT22;374;52.568;13.402;2023-04-24T00:51:09;13.00;99.90
782;DHT22;374;52.568;13.402;2023-04-24T00:53:34;12.90;99.90
782;DHT22;374;52.568;13.402;2023-04-24T00:56:01;12.90;99.90
782;DHT22;374;52.568;13.402;2023-04-24T00:58:27;12.80;99.90
782;DHT22;374;52.568;13.402;2023-04-24T01:00:54;12.80;99.90
782;DHT22;374;52.568;13.402;2023-04-24T01:03:22;12.80;99.90
782;DHT22;374;52.568;13.402;2023-04-24T01:05:49;12.80;99.90
782;DHT22;374;52.568;13.402;2023-04-24T01:08:15;12.80;99.90
782;DHT22;374;52.568;13.402;2023-04-24T01:10:41;12.70;99.90
782;DHT22;374;52.568;13.402;2023-04-24T01:13:08;12.70;99.90
782;DHT22;374;52.568;13.402;2023-04-24T01:15:34;12.80;99.90
782;DHT22;374;52.568;13.402;2023-04-24T01:17:59;12.80;99.90
782;DHT22;374;52.568;13.402;2023-04-24T01:20:25;12.80;99.90
782;DHT22;374;52.568;13.402;2023-04-24T01:22:51;12.80;99.90
782;DHT22;374;52.568;13.402;2023-04-24T01:25:18;12.90;99.90
782;DHT22;374;52.568;13.402;2023-04-24T01:30:10;12.90;99.90
782;DHT22;374;52.568;13.402;2023-04-24T01:32:36;12.80;99.90
782;DHT22;374;52.568;13.402;2023-04-24T01:35:03;12.80;99.90
782;DHT22;374;52.568;13.402;2023-04-24T01:37:29;12.90;99.90
782;DHT22;374;52.568;13.402;2023-04-24T01:39:56;12.80;99.90
782;DHT22;374;52.568;13.402;2023-04-24T01:42:22;12.80;99.90
782;DHT22;374;52.568;13.402;2023-04-24T01:44:48;12.90;99.90
782;DHT22;374;52.568;13.402;2023-04-24T01:47:14;12.60;99.90
782;DHT22;374;52.568;13.402;2023-04-24T01:49:40;12.90;99.90
782;DHT22;374;52.568;13.402;2023-04-24T01:52:06;12.90;99.90
782;DHT22;374;52.568;13.402;2023-04-24T01:54:33;12.60;99.90
782;DHT22;374;52.568;13.402;2023-04-24T01:56:59;12.80;99.90
782;DHT22;374;52.568;13.402;2023-04-24T01:59:28;13.10;99.90
782;DHT22;374;52.568;13.402;2023-04-24T02:01:53;12.80;99.90
782;DHT22;374;52.568;13.402;2023-04-24T02:04:19;12.90;99.90
782;DHT22;374;52.568;13.402;2023-04-24T02:06:44;12.90;99.90
782;DHT22;374;52.568;13.402;2023-04-24T02:09:10;12.60;99.90
782;DHT22;374;52.568;13.402;2023-04-24T02:11:36;12.90;99.90
782;DHT22;374;52.568;13.402;2023-04-24T02:14:01;12.90;99.90
782;DHT22;374;52.568;13.402;2023-04-24T02:16:28;12.70;99.90
782;DHT22;374;52.568;13.402;2023-04-24T02:21:23;12.90;99.90
782;DHT22;374;52.568;13.402;2023-04-24T02:23:49;13.00;99.90
782;DHT22;374;52.568;13.402;2023-04-24T02:26:15;12.90;99.90
782;DHT22;374;52.568;13.402;2023-04-24T02:28:40;14.10;99.90
782;DHT22;374;52.568;13.402;2023-04-24T02:31:06;12.90;99.90
782;DHT22;374;52.568;13.402;2023-04-24T02:33:31;12.80;99.90
782;DHT22;374;52.568;13.402;2023-04-24T02:35:57;12.90;99.90
782;DHT22;374;52.568;13.402;2023-04-24T02:38:23;13.00;99.90
782;DHT22;374;52.568;13.402;2023-04-24T02:40:48;12.80;99.90
782;DHT22;374;52.568;13.402;2023-04-24T02:43:14;12.90;99.90
782;DHT22;374;52.568;13.402;2023-04-24T02:46:00;13.10;99.90
782;DHT22;374;52.568;13.402;2023-04-24T02:50:54;13.00;99.90
782;DHT22;374;52.568;13.402;2023-04-24T02:53:20;12.90;99.90
782;DHT22;374;52.568;13.402;2023-04-24T02:55:46;15.00;99.90
782;DHT22;374;52.568;13.402;2023-04-24T03:00:38;12.90;99.90
782;DHT22;374;52.568;13.402;2023-04-24T03:03:04;12.90;99.90
782;DHT22;374;52.568;13.402;2023-04-24T03:05:31;13.00;99.90
782;DHT22;374;52.568;13.402;2023-04-24T03:07:56;12.70;99.90
782;DHT22;374;52.568;13.402;2023-04-24T03:10:22;13.00;99.90
782;DHT22;374;52.568;13.402;2023-04-24T03:12:48;12.90;99.90
782;DHT22;374;52.568;13.402;2023-04-24T03:15:13;13.00;99.90
782;DHT22;374;52.568;13.402;2023-04-24T03:17:39;13.00;99.90
782;DHT22;374;52.568;13.402;2023-04-24T03:20:05;13.00;99.90
782;DHT22;374;52.568;13.402;2023-04-24T03:22:31;12.90;99.90
782;DHT22;374;52.568;13.402;2023-04-24T03:24:58;13.80;99.90
782;DHT22;374;52.568;13.402;2023-04-24T03:27:23;12.90;99.90
782;DHT22;374;52.568;13.402;2023-04-24T03:29:49;13.00;99.90
782;DHT22;374;52.568;13.402;2023-04-24T03:32:19;12.90;99.90
782;DHT22;374;52.568;13.402;2023-04-24T03:34:44;12.90;99.90
782;DHT22;374;52.568;13.402;2023-04-24T03:37:10;13.00;99.90
782;DHT22;374;52.568;13.402;2023-04-24T03:39:35;13.00;99.90
782;DHT22;374;52.568;13.402;2023-04-24T03:42:00;13.00;99.90
782;DHT22;374;52.568;13.402;2023-04-24T03:44:26;13.00;99.90
782;DHT22;374;52.568;13.402;2023-04-24T03:46:53;13.00;99.90
782;DHT22;374;52.568;13.402;2023-04-24T03:49:19;13.00;99.90
782;DHT22;374;52.568;13.402;2023-04-24T03:51:44;13.00;99.90
782;DHT22;374;52.568;13.402;2023-04-24T03:54:10;13.00;99.90
782;DHT22;374;52.568;13.402;2023-04-24T03:56:35;13.00;99.90
782;DHT22;374;52.568;13.402;2023-04-24T03:59:01;13.00;99.90
782;DHT22;374;52.568;13.402;2023-04-24T04:01:27;13.00;99.90
782;DHT22;374;52.568;13.402;2023-04-24T04:03:53;13.00;99.90
782;DHT22;374;52.568;13.402;2023-04-24T04:06:19;14.20;99.90
782;DHT22;374;52.568;13.402;2023-04-24T04:08:44;12.90;99.90
782;DHT22;374;52.568;13.402;2023-04-24T04:11:10;12.80;99.90
782;DHT22;374;52.568;13.402;2023-04-24T04:13:35;12.70;99.90
782;DHT22;374;52.568;13.402;2023-04-24T04:16:01;13.00;99.90
782;DHT22;374;52.568;13.402;2023-04-24T04:18:26;12.90;99.90
782;DHT22;374;52.568;13.402;2023-04-24T04:20:52;13.00;99.90
782;DHT22;374;52.568;13.402;2023-04-24T04:23:17;13.00;99.90
782;DHT22;374;52.568;13.402;2023-04-24T04:25:43;13.00;99.90
782;DHT22;374;52.568;13.402;2023-04-24T04:28:08;13.00;99.90
782;DHT22;374;52.568;13.402;2023-04-24T04:30:34;13.00;99.90
782;DHT22;374;52.568;13.402;2023-04-24T04:32:59;13.00;99.90
782;DHT22;374;52.568;13.402;2023-04-24T04:35:25;13.00;99.90
782;DHT22;374;52.568;13.402;2023-04-24T04:37:51;13.00;99.90
782;DHT22;374;52.568;13.402;2023-04-24T04:40:16;13.10;99.90
782;DHT22;374;52.568;13.402;2023-04-24T04:42:42;12.90;99.90
782;DHT22;374;52.568;13.402;2023-04-24T04:47:37;13.00;99.90
782;DHT22;374;52.568;13.402;2023-04-24T04:50:03;13.00;99.90
782;DHT22;374;52.568;13.402;2023-04-24T04:52:29;13.00;99.90
782;DHT22;374;52.568;13.402;2023-04-24T04:54:55;12.90;99.90
782;DHT22;374;52.568;13.402;2023-04-24T04:57:20;13.00;99.90
782;DHT22;374;52.568;13.402;2023-04-24T04:59:46;13.20;99.90
782;DHT22;374;52.568;13.402;2023-04-24T05:02:12;13.00;99.90
782;DHT22;374;52.568;13.402;2023-04-24T05:07:03;13.00;99.90
782;DHT22;374;52.568;13.402;2023-04-24T05:09:29;13.40;99.90
782;DHT22;374;52.568;13.402;2023-04-24T05:11:55;13.00;99.90
782;DHT22;374;52.568;13.402;2023-04-24T05:14:21;12.80;99.90
782;DHT22;374;52.568;13.402;2023-04-24T05:16:47;13.10;99.90
782;DHT22;374;52.568;13.402;2023-04-24T05:19:12;13.10;99.90
782;DHT22;374;52.568;13.402;2023-04-24T05:21:39;13.10;99.90
782;DHT22;374;52.568;13.402;2023-04-24T05:24:05;13.10;99.90
782;DHT22;374;52.568;13.402;2023-04-24T05:26:31;13.20;99.90
782;DHT22;374;52.568;13.402;2023-04-24T05:28:57;13.20;99.90
782;DHT22;374;52.568;13.402;2023-04-24T05:31:22;13.10;99.90
782;DHT22;374;52.568;13.402;2023-04-24T05:33:48;14.40;99.90
782;DHT22;374;52.568;13.402;2023-04-24T05:36:13;13.20;99.90
782;DHT22;374;52.568;13.402;2023-04-24T05:38:39;13.20;99.90
782;DHT22;374;52.568;13.402;2023-04-24T05:41:04;13.20;99.90
782;DHT22;374;52.568;13.402;2023-04-24T05:43:30;13.20;99.90
782;DHT22;374;52.568;13.402;2023-04-24T05:45:55;13.20;99.90
782;DHT22;374;52.568;13.402;2023-04-24T05:48:21;13.20;99.90
782;DHT22;374;52.568;13.402;2023-04-24T05:50:48;13.10;99.90
782;DHT22;374;52.568;13.402;2023-04-24T05:53:13;13.20;99.90
782;DHT22;374;52.568;13.402;2023-04-24T05:55:39;13.20;99.90
782;DHT22;374;52.568;13.402;2023-04-24T05:58:05;13.20;99.90
782;DHT22;374;52.568;13.402;2023-04-24T06:00:31;13.20;99.90
782;DHT22;374;52.568;13.402;2023-04-24T06:02:56;13.20;99.90
782;DHT22;374;52.568;13.402;2023-04-24T06:05:22;13.30;99.90
782;DHT22;374;52.568;13.402;2023-04-24T06:07:49;13.30;99.90
782;DHT22;374;52.568;13.402;2023-04-24T06:10:15;13.40;99.90
782;DHT22;374;52.568;13.402;2023-04-24T06:12:40;13.30;99.90
782;DHT22;374;52.568;13.402;2023-04-24T06:15:06;13.40;99.90
782;DHT22;374;52.568;13.402;2023-04-24T06:19:58;13.50;99.90
782;DHT22;374;52.568;13.402;2023-04-24T06:22:23;13.50;99.90
782;DHT22;374;52.568;13.402;2023-04-24T06:24:49;13.70;99.90
782;DHT22;374;52.568;13.402;2023-04-24T06:27:15;13.60;99.90
782;DHT22;374;52.568;13.402;2023-04-24T06:29:40;13.20;99.90
782;DHT22;374;52.568;13.402;2023-04-24T06:32:06;13.80;99.90
782;DHT22;374;52.568;13.402;2023-04-24T06:34:31;13.80;99.90
782;DHT22;374;52.568;13.402;2023-04-24T06:36:58;14.10;99.90
782;DHT22;374;52.568;13.402;2023-04-24T06:39:24;14.00;99.90
782;DHT22;374;52.568;13.402;2023-04-24T06:41:49;13.90;99.90
782;DHT22;374;52.568;13.402;2023-04-24T06:44:15;14.30;99.90
782;DHT22;374;52.568;13.402;2023-04-24T06:46:41;14.60;99.90
782;DHT22;374;52.568;13.402;2023-04-24T06:49:07;14.80;99.90
782;DHT22;374;52.568;13.402;2023-04-24T06:51:33;16.40;99.90
782;DHT22;374;52.568;13.402;2023-04-24T06:53:59;15.30;99.90
782;DHT22;374;52.568;13.402;2023-04-24T06:56:25;15.30;99.90
782;DHT22;374;52.568;13.402;2023-04-24T06:58:51;15.30;99.90
782;DHT22;374;52.568;13.402;2023-04-24T07:06:09;15.90;99.90
782;DHT22;374;52.568;13.402;2023-04-24T07:08:38;16.00;99.90
782;DHT22;374;52.568;13.402;2023-04-24T07:11:04;16.00;99.90
782;DHT22;374;52.568;13.402;2023-04-24T07:13:29;16.00;99.90
782;DHT22;374;52.568;13.402;2023-04-24T07:15:55;16.20;99.90
782;DHT22;374;52.568;13.402;2023-04-24T07:18:21;16.10;99.90
782;DHT22;374;52.568;13.402;2023-04-24T07:20:47;16.20;99.90
782;DHT22;374;52.568;13.402;2023-04-24T07:23:13;16.50;99.90
782;DHT22;374;52.568;13.402;2023-04-24T07:25:38;16.70;99.90
782;DHT22;374;52.568;13.402;2023-04-24T07:28:04;16.90;99.90
782;DHT22;374;52.568;13.402;2023-04-24T07:30:31;17.00;99.90
782;DHT22;374;52.568;13.402;2023-04-24T07:32:58;17.10;99.90
782;DHT22;374;52.568;13.402;2023-04-24T07:35:24;17.30;99.90
782;DHT22;374;52.568;13.402;2023-04-24T07:37:51;17.40;99.90
782;DHT22;374;52.568;13.402;2023-04-24T07:40:18;17.60;99.90
782;DHT22;374;52.568;13.402;2023-04-24T07:42:43;17.70;99.90
782;DHT22;374;52.568;13.402;2023-04-24T07:45:09;17.60;99.90
782;DHT22;374;52.568;13.402;2023-04-24T07:47:35;17.50;99.90
782;DHT22;374;52.568;13.402;2023-04-24T07:50:02;17.60;99.90
782;DHT22;374;52.568;13.402;2023-04-24T07:52:28;17.80;99.10
782;DHT22;374;52.568;13.402;2023-04-24T07:54:54;17.80;99.00
782;DHT22;374;52.568;13.402;2023-04-24T07:57:24;18.10;99.10
782;DHT22;374;52.568;13.402;2023-04-24T07:59:50;18.40;98.70
782;DHT22;374;52.568;13.402;2023-04-24T08:02:15;18.40;99.00
782;DHT22;374;52.568;13.402;2023-04-24T08:04:41;18.40;99.10
782;DHT22;374;52.568;13.402;2023-04-24T08:07:06;18.40;98.60
782;DHT22;374;52.568;13.402;2023-04-24T08:09:32;18.50;96.30
782;DHT22;374;52.568;13.402;2023-04-24T08:11:57;18.80;97.30
782;DHT22;374;52.568;13.402;2023-04-24T08:14:23;18.90;98.00
782;DHT22;374;52.568;13.402;2023-04-24T08:16:48;19.10;96.80
782;DHT22;374;52.568;13.402;2023-04-24T08:19:14;19.20;96.10
782;DHT22;374;52.568;13.402;2023-04-24T08:21:39;18.90;96.40
782;DHT22;374;52.568;13.402;2023-04-24T08:24:05;18.90;96.20
782;DHT22;374;52.568;13.402;2023-04-24T08:26:32;18.90;96.60
782;DHT22;374;52.568;13.402;2023-04-24T08:28:58;18.70;96.00
782;DHT22;374;52.568;13.402;2023-04-24T08:31:24;18.80;95.90
782;DHT22;374;52.568;13.402;2023-04-24T08:33:50;18.90;95.50
782;DHT22;374;52.568;13.402;2023-04-24T08:36:15;18.50;94.70
782;DHT22;374;52.568;13.402;2023-04-24T08:38:42;18.60;94.50
782;DHT22;374;52.568;13.402;2023-04-24T08:41:09;18.60;95.10
782;DHT22;374;52.568;13.402;2023-04-24T08:43:35;18.70;94.80
782;DHT22;374;52.568;13.402;2023-04-24T08:46:03;18.80;94.90
782;DHT22;374;52.568;13.402;2023-04-24T08:48:29;18.90;95.70
782;DHT22;374;52.568;13.402;2023-04-24T08:50:56;18.70;95.00
782;DHT22;374;52.568;13.402;2023-04-24T08:53:24;18.70;95.80
782;DHT22;374;52.568;13.402;2023-04-24T08:55:58;18.60;96.20
782;DHT22;374;52.568;13.402;2023-04-24T08:58:27;18.70;95.10
782;DHT22;374;52.568;13.402;2023-04-24T09:00:57;19.10;95.90
782;DHT22;374;52.568;13.402;2023-04-24T09:03:55;18.30;94.60
782;DHT22;374;52.568;13.402;2023-04-24T09:06:32;19.20;96.00
782;DHT22;374;52.568;13.402;2023-04-24T09:09:05;20.10;93.00
782;DHT22;374;52.568;13.402;2023-04-24T09:12:05;19.10;92.10
782;DHT22;374;52.568;13.402;2023-04-24T09:15:05;20.10;95.50
782;DHT22;374;52.568;13.402;2023-04-24T09:17:42;19.00;92.90
782;DHT22;374;52.568;13.402;2023-04-24T09:20:17;19.00;91.30
782;DHT22;374;52.568;13.402;2023-04-24T09:23:04;18.90;92.00
782;DHT22;374;52.568;13.402;2023-04-24T09:25:40;18.90;96.40
782;DHT22;374;52.568;13.402;2023-04-24T09:33:18;18.70;91.40
782;DHT22;374;52.568;13.402;2023-04-24T09:36:13;18.50;98.50
782;DHT22;374;52.568;13.402;2023-04-24T09:41:08;18.50;93.70
782;DHT22;374;52.568;13.402;2023-04-24T09:46:06;18.40;95.10
782;DHT22;374;52.568;13.402;2023-04-24T09:48:36;18.00;95.20
782;DHT22;374;52.568;13.402;2023-04-24T09:51:04;18.10;95.70
782;DHT22;374;52.568;13.402;2023-04-24T09:53:32;18.20;95.70
782;DHT22;374;52.568;13.402;2023-04-24T09:56:08;18.20;96.70
782;DHT22;374;52.568;13.402;2023-04-24T09:58:37;18.10;96.70
782;DHT22;374;52.568;13.402;2023-04-24T10:01:35;18.20;97.20
782;DHT22;374;52.568;13.402;2023-04-24T10:06:36;18.20;97.40
782;DHT22;374;52.568;13.402;2023-04-24T10:11:53;18.50;97.10
782;DHT22;374;52.568;13.402;2023-04-24T10:14:46;19.10;97.90
782;DHT22;374;52.568;13.402;2023-04-24T10:18:10;18.70;95.80
782;DHT22;374;52.568;13.402;2023-04-24T10:21:03;19.00;96.10
782;DHT22;374;52.568;13.402;2023-04-24T10:28:49;18.70;96.20
782;DHT22;374;52.568;13.402;2023-04-24T10:31:27;18.60;95.80
782;DHT22;374;52.568;13.402;2023-04-24T10:41:18;18.60;95.10
782;DHT22;374;52.568;13.402;2023-04-24T10:44:12;18.50;99.30
782;DHT22;374;52.568;13.402;2023-04-24T10:46:45;18.40;96.40
782;DHT22;374;52.568;13.402;2023-04-24T10:51:49;18.20;96.20
782;DHT22;374;52.568;13.402;2023-04-24T10:57:35;18.20;96.40
782;DHT22;374;52.568;13.402;2023-04-24T11:00:18;17.90;98.90
782;DHT22;374;52.568;13.402;2023-04-24T11:02:59;18.10;96.90
782;DHT22;374;52.568;13.402;2023-04-24T11:05:58;17.90;97.60
782;DHT22;374;52.568;13.402;2023-04-24T11:08:47;18.10;96.30
782;DHT22;374;52.568;13.402;2023-04-24T11:14:21;18.30;95.80
782;DHT22;374;52.568;13.402;2023-04-24T11:16:58;18.70;98.90
782;DHT22;374;52.568;13.402;2023-04-24T11:22:14;18.40;95.30
782;DHT22;374;52.568;13.402;2023-04-24T11:24:50;18.30;96.30
782;DHT22;374;52.568;13.402;2023-04-24T11:27:24;18.20;96.30
782;DHT22;374;52.568;13.402;2023-04-24T11:38:07;18.10;95.80
782;DHT22;374;52.568;13.402;2023-04-24T11:40:47;17.90;99.90
782;DHT22;374;52.568;13.402;2023-04-24T11:43:47;18.50;99.50
782;DHT22;374;52.568;13.402;2023-04-24T11:51:29;17.60;99.90
782;DHT22;374;52.568;13.402;2023-04-24T11:53:58;17.40;99.90
782;DHT22;374;52.568;13.402;2023-04-24T11:56:27;17.30;99.90
782;DHT22;374;52.568;13.402;2023-04-24T12:04:02;17.20;99.90
782;DHT22;374;52.568;13.402;2023-04-24T12:08:56;17.10;99.90
782;DHT22;374;52.568;13.402;2023-04-24T12:16:33;17.10;99.90
782;DHT22;374;52.568;13.402;2023-04-24T12:19:04;17.20;99.90
782;DHT22;374;52.568;13.402;2023-04-24T12:26:44;17.20;99.90
782;DHT22;374;52.568;13.402;2023-04-24T12:29:25;17.60;99.90
782;DHT22;374;52.568;13.402;2023-04-24T12:31:54;17.30;99.90
782;DHT22;374;52.568;13.402;2023-04-24T12:34:35;17.70;99.90
782;DHT22;374;52.568;13.402;2023-04-24T12:37:11;16.80;99.90
782;DHT22;374;52.568;13.402;2023-04-24T12:42:08;17.50;99.90
782;DHT22;374;52.568;13.402;2023-04-24T12:44:34;17.50;99.90
782;DHT22;374;52.568;13.402;2023-04-24T12:47:27;20.50;99.90
782;DHT22;374;52.568;13.402;2023-04-24T12:50:02;17.80;99.90
782;DHT22;374;52.568;13.402;2023-04-24T12:52:42;17.40;99.90
782;DHT22;374;52.568;13.402;2023-04-24T12:55:36;16.10;98.10
782;DHT22;374;52.568;13.402;2023-04-24T12:58:23;17.80;94.80
782;DHT22;374;52.568;13.402;2023-04-24T13:00:52;17.80;96.60
782;DHT22;374;52.568;13.402;2023-04-24T13:05:53;17.80;96.20
782;DHT22;374;52.568;13.402;2023-04-24T13:08:28;17.80;95.20
782;DHT22;374;52.568;13.402;2023-04-24T13:11:12;17.80;94.90
782;DHT22;374;52.568;13.402;2023-04-24T13:13:49;20.60;97.60
782;DHT22;374;52.568;13.402;2023-04-24T13:16:43;17.90;93.20
782;DHT22;374;52.568;13.402;2023-04-24T13:21:48;17.90;94.70
782;DHT22;374;52.568;13.402;2023-04-24T13:26:45;17.90;94.80
782;DHT22;374;52.568;13.402;2023-04-24T13:31:49;18.00;93.90
782;DHT22;374;52.568;13.402;2023-04-24T13:34:43;18.00;94.40
782;DHT22;374;52.568;13.402;2023-04-24T13:42:09;17.80;94.90
782;DHT22;374;52.568;13.402;2023-04-24T13:47:06;17.80;94.70
782;DHT22;374;52.568;13.402;2023-04-24T13:52:09;17.80;93.30
782;DHT22;374;52.568;13.402;2023-04-24T13:54:40;17.80;94.80
782;DHT22;374;52.568;13.402;2023-04-24T13:57:13;18.10;96.20
782;DHT22;374;52.568;13.402;2023-04-24T13:59:45;20.60;96.50
782;DHT22;374;52.568;13.402;2023-04-24T14:02:26;19.80;95.60
782;DHT22;374;52.568;13.402;2023-04-24T14:12:16;18.00;92.50
782;DHT22;374;52.568;13.402;2023-04-24T14:17:19;17.90;91.40
782;DHT22;374;52.568;13.402;2023-04-24T14:22:13;17.90;87.50
782;DHT22;374;52.568;13.402;2023-04-24T14:27:11;17.90;89.80
782;DHT22;374;52.568;13.402;2023-04-24T14:34:36;17.90;90.00
782;DHT22;374;52.568;13.402;2023-04-24T14:37:04;17.90;90.60
782;DHT22;374;52.568;13.402;2023-04-24T14:46:58;18.00;84.20
782;DHT22;374;52.568;13.402;2023-04-24T14:51:49;17.90;88.80
782;DHT22;374;52.568;13.402;2023-04-24T15:04:11;17.60;80.90
782;DHT22;374;52.568;13.402;2023-04-24T15:09:06;17.60;87.00
782;DHT22;374;52.568;13.402;2023-04-24T15:11:32;17.70;82.10
782;DHT22;374;52.568;13.402;2023-04-24T15:14:00;17.70;81.10
782;DHT22;374;52.568;13.402;2023-04-24T15:16:29;17.60;92.00
782;DHT22;374;52.568;13.402;2023-04-24T15:21:34;17.50;84.40
782;DHT22;374;52.568;13.402;2023-04-24T15:27:09;17.40;87.60
782;DHT22;374;52.568;13.402;2023-04-24T15:29:43;17.40;86.70
782;DHT22;374;52.568;13.402;2023-04-24T15:32:14;17.40;84.10
782;DHT22;374;52.568;13.402;2023-04-24T15:34:45;17.90;89.20
782;DHT22;374;52.568;13.402;2023-04-24T15:45:05;17.30;87.40
782;DHT22;374;52.568;13.402;2023-04-24T15:47:32;17.10;90.10
782;DHT22;374;52.568;13.402;2023-04-24T15:49:57;17.40;91.90
782;DHT22;374;52.568;13.402;2023-04-24T15:52:23;17.10;87.10
782;DHT22;374;52.568;13.402;2023-04-24T15:54:48;16.70;85.10
782;DHT22;374;52.568;13.402;2023-04-24T15:57:14;17.10;88.80
782;DHT22;374;52.568;13.402;2023-04-24T15:59:40;18.00;90.00
782;DHT22;374;52.568;13.402;2023-04-24T16:02:09;17.10;87.90
782;DHT22;374;52.568;13.402;2023-04-24T16:04:39;17.00;88.20
782;DHT22;374;52.568;13.402;2023-04-24T16:07:04;17.70;91.90
782;DHT22;374;52.568;13.402;2023-04-24T16:09:32;16.90;86.40
782;DHT22;374;52.568;13.402;2023-04-24T16:14:24;16.80;88.60
782;DHT22;374;52.568;13.402;2023-04-24T16:19:18;17.10;89.80
782;DHT22;374;52.568;13.402;2023-04-24T16:21:44;16.30;89.90
782;DHT22;374;52.568;13.402;2023-04-24T16:26:35;16.70;88.90
782;DHT22;374;52.568;13.402;2023-04-24T16:29:01;15.70;87.70
782;DHT22;374;52.568;13.402;2023-04-24T16:31:29;16.90;89.80
782;DHT22;374;52.568;13.402;2023-04-24T16:33:57;18.80;92.80
782;DHT22;374;52.568;13.402;2023-04-24T16:36:33;16.80;86.30
782;DHT22;374;52.568;13.402;2023-04-24T16:53:48;16.50;91.70
782;DHT22;374;52.568;13.402;2023-04-24T16:56:14;18.70;94.70
782;DHT22;374;52.568;13.402;2023-04-24T17:01:08;16.30;91.50
782;DHT22;374;52.568;13.402;2023-04-24T17:03:37;18.50;94.20
782;DHT22;374;52.568;13.402;2023-04-24T17:11:06;16.10;97.90
782;DHT22;374;52.568;13.402;2023-04-24T17:15:58;16.10;94.20
782;DHT22;374;52.568;13.402;2023-04-24T17:18:23;16.10;98.00
782;DHT22;374;52.568;13.402;2023-04-24T17:23:15;15.90;94.90
782;DHT22;374;52.568;13.402;2023-04-24T17:25:40;15.70;95.50
782;DHT22;374;52.568;13.402;2023-04-24T17:28:20;15.50;95.00
782;DHT22;374;52.568;13.402;2023-04-24T17:30:47;15.60;96.60
782;DHT22;374;52.568;13.402;2023-04-24T17:33:13;15.50;97.40
782;DHT22;374;52.568;13.402;2023-04-24T17:35:38;15.50;98.40
782;DHT22;374;52.568;13.402;2023-04-24T17:38:04;15.60;99.90
782;DHT22;374;52.568;13.402;2023-04-24T17:40:30;15.40;99.20
782;DHT22;374;52.568;13.402;2023-04-24T17:42:56;15.60;99.90
782;DHT22;374;52.568;13.402;2023-04-24T17:45:21;15.10;99.90
782;DHT22;374;52.568;13.402;2023-04-24T17:47:47;15.40;99.90
782;DHT22;374;52.568;13.402;2023-04-24T17:52:38;15.40;97.30
782;DHT22;374;52.568;13.402;2023-04-24T17:55:04;15.40;97.90
782;DHT22;374;52.568;13.402;2023-04-24T17:57:30;15.30;98.30
782;DHT22;374;52.568;13.402;2023-04-24T17:59:56;15.10;99.90
782;DHT22;374;52.568;13.402;2023-04-24T18:09:45;15.10;97.70
782;DHT22;374;52.568;13.402;2023-04-24T18:12:13;15.10;97.70
782;DHT22;374;52.568;13.402;2023-04-24T18:21:57;15.00;99.80
782;DHT22;374;52.568;13.402;2023-04-24T18:29:18;14.70;96.10
782;DHT22;374;52.568;13.402;2023-04-24T18:31:48;14.60;95.70
782;DHT22;374;52.568;13.402;2023-04-24T18:34:16;15.40;98.00
782;DHT22;374;52.568;13.402;2023-04-24T18:39:15;14.50;95.60
782;DHT22;374;52.568;13.402;2023-04-24T18:41:41;14.50;97.30
782;DHT22;374;52.568;13.402;2023-04-24T18:49:05;14.20;96.20
782;DHT22;374;52.568;13.402;2023-04-24T18:58:58;13.90;96.50
782;DHT22;374;52.568;13.402;2023-04-24T19:13:37;13.80;96.10
782;DHT22;374;52.568;13.402;2023-04-24T19:38:04;13.50;97.80
782;DHT22;374;52.568;13.402;2023-04-24T19:42:58;13.30;98.40
782;DHT22;374;52.568;13.402;2023-04-24T19:47:52;13.20;98.00
782;DHT22;374;52.568;13.402;2023-04-24T19:50:22;13.20;99.90
782;DHT22;374;52.568;13.402;2023-04-24T20:01:49;12.90;99.90
782;DHT22;374;52.568;13.402;2023-04-24T20:20:32;12.80;96.90
782;DHT22;374;52.568;13.402;2023-04-24T20:26:38;12.70;99.70
782;DHT22;374;52.568;13.402;2023-04-24T20:33:21;12.60;99.90
782;DHT22;374;52.568;13.402;2023-04-24T20:50:05;12.70;99.90
782;DHT22;374;52.568;13.402;2023-04-24T20:52:34;13.60;99.70
782;DHT22;374;52.568;13.402;2023-04-24T21:02:17;12.50;99.40
782;DHT22;374;52.568;13.402;2023-04-24T21:04:43;12.30;99.90
782;DHT22;374;52.568;13.402;2023-04-24T21:07:08;12.30;99.70
782;DHT22;374;52.568;13.402;2023-04-24T21:09:34;12.40;99.90
782;DHT22;374;52.568;13.402;2023-04-24T21:12:00;12.40;99.90
782;DHT22;374;52.568;13.402;2023-04-24T21:14:27;12.40;99.90
782;DHT22;374;52.568;13.402;2023-04-24T21:19:21;12.40;99.90
782;DHT22;374;52.568;13.402;2023-04-24T21:21:47;12.20;99.90
782;DHT22;374;52.568;13.402;2023-04-24T21:24:12;12.00;99.90
782;DHT22;374;52.568;13.402;2023-04-24T21:33:56;12.30;99.90
782;DHT22;374;52.568;13.402;2023-04-24T21:36:21;12.00;99.90
782;DHT22;374;52.568;13.402;2023-04-24T21:38:47;12.20;99.90
782;DHT22;374;52.568;13.402;2023-04-24T21:43:53;12.30;99.90
782;DHT22;374;52.568;13.402;2023-04-24T21:46:18;12.10;99.90
782;DHT22;374;52.568;13.402;2023-04-24T21:48:44;12.10;99.90
782;DHT22;374;52.568;13.402;2023-04-24T21:51:10;11.50;99.90
782;DHT22;374;52.568;13.402;2023-04-24T21:56:12;12.10;99.90
782;DHT22;374;52.568;13.402;2023-04-24T22:01:03;12.20;99.90
782;DHT22;374;52.568;13.402;2023-04-24T22:08:26;12.10;99.90
782;DHT22;374;52.568;13.402;2023-04-24T22:25:42;12.00;99.90
782;DHT22;374;52.568;13.402;2023-04-24T22:28:25;13.80;99.90
782;DHT22;374;52.568;13.402;2023-04-24T22:33:19;11.90;99.90
782;DHT22;374;52.568;13.402;2023-04-24T22:38:13;11.90;99.90
782;DHT22;374;52.568;13.402;2023-04-24T22:55:33;11.70;99.90
782;DHT22;374;52.568;13.402;2023-04-24T23:10:15;11.70;99.90
782;DHT22;374;52.568;13.402;2023-04-24T23:12:47;11.40;99.90
782;DHT22;374;52.568;13.402;2023-04-24T23:20:20;11.60;99.90
782;DHT22;374;52.568;13.402;2023-04-24T23:30:07;11.70;99.90